WAXY62 LHBP-EKCH
Flight info
| Callsign | WAXY62 |
|---|---|
| Flight time | 1h 32m |
| Altitude | 32000 |
| Route | LITKU Y301 KALIF/N0479F430 DCT BILNA DCT REGLI L617 ADVAB L619 DENKO L996 GOSOT/N0478F280 L996 ROE M743 TIDVU |
| Aircraft | C700/M-SBDGHM1RWXY/LB2 |
Departure
| Time | 2026-05-04 18:39 |
|---|---|
| Airport | Budapest Liszt Ferenc International Airport (LHBP) |
Arrival
| Time | 2026-05-04 20:11 |
|---|---|
| Airport | Copenhagen Kastrup Airport (EKCH) |
| Time | Latitude | Longitude | Altitude | Speed | Heading |
|---|---|---|---|---|---|
| 2026-05-04 18:25 | 47.43081 | 19.25996 | 475 ft | 0 kts | 43° |
| 2026-05-04 18:30 | 47.43071 | 19.25982 | 470 ft | 3 kts | 32° |
| 2026-05-04 18:30 | 47.43052 | 19.25971 | 471 ft | 3 kts | 15° |
| 2026-05-04 18:30 | 47.43032 | 19.25963 | 472 ft | 3 kts | 5° |
| 2026-05-04 18:31 | 47.43018 | 19.25966 | 472 ft | 0 kts | 319° |
| 2026-05-04 18:32 | 47.43026 | 19.25956 | 472 ft | 8 kts | 320° |
| 2026-05-04 18:32 | 47.43058 | 19.25889 | 472 ft | 9 kts | 318° |
| 2026-05-04 18:32 | 47.43111 | 19.25813 | 470 ft | 12 kts | 316° |
| 2026-05-04 18:33 | 47.43177 | 19.25700 | 467 ft | 17 kts | 313° |
| 2026-05-04 18:33 | 47.43248 | 19.25584 | 465 ft | 13 kts | 310° |
| 2026-05-04 18:33 | 47.43314 | 19.25472 | 464 ft | 16 kts | 311° |
| 2026-05-04 18:33 | 47.43381 | 19.25439 | 467 ft | 8 kts | 22° |
| 2026-05-04 18:34 | 47.43420 | 19.25494 | 468 ft | 10 kts | 43° |
| 2026-05-04 18:34 | 47.43484 | 19.25580 | 474 ft | 14 kts | 42° |
| 2026-05-04 18:34 | 47.43553 | 19.25671 | 475 ft | 14 kts | 41° |
| 2026-05-04 18:34 | 47.43623 | 19.25764 | 472 ft | 13 kts | 41° |
| 2026-05-04 18:35 | 47.43693 | 19.25854 | 481 ft | 14 kts | 43° |
| 2026-05-04 18:35 | 47.43780 | 19.25971 | 483 ft | 18 kts | 42° |
| 2026-05-04 18:35 | 47.43874 | 19.26098 | 485 ft | 18 kts | 42° |
| 2026-05-04 18:35 | 47.43969 | 19.26230 | 482 ft | 18 kts | 43° |
| 2026-05-04 18:36 | 47.43987 | 19.26255 | 488 ft | 0 kts | 43° |
| 2026-05-04 18:37 | 47.44001 | 19.26274 | 489 ft | 14 kts | 43° |
| 2026-05-04 18:37 | 47.44067 | 19.26421 | 483 ft | 19 kts | 75° |
| 2026-05-04 18:37 | 47.44057 | 19.26541 | 476 ft | 2 kts | 133° |
| 2026-05-04 18:37 | 47.44039 | 19.26570 | 482 ft | 0 kts | 133° |
| 2026-05-04 18:38 | 47.43966 | 19.26687 | 478 ft | 54 kts | 130° |
| 2026-05-04 18:39 | 47.43498 | 19.27425 | 467 ft | 140 kts | 135° |
| 2026-05-04 18:39 | 47.42679 | 19.28662 | 801 ft | 189 kts | 128° |
| 2026-05-04 18:39 | 47.41907 | 19.30520 | 1391 ft | 237 kts | 121° |
| 2026-05-04 18:39 | 47.41025 | 19.32818 | 1991 ft | 281 kts | 123° |
| 2026-05-04 18:40 | 47.40087 | 19.35204 | 2563 ft | 257 kts | 123° |
| 2026-05-04 18:40 | 47.39228 | 19.37421 | 3203 ft | 246 kts | 123° |
| 2026-05-04 18:40 | 47.38493 | 19.39682 | 3830 ft | 246 kts | 107° |
| 2026-05-04 18:40 | 47.38600 | 19.42212 | 4450 ft | 257 kts | 70° |
| 2026-05-04 18:41 | 47.39653 | 19.44347 | 5081 ft | 259 kts | 46° |
| 2026-05-04 18:41 | 47.40995 | 19.46156 | 5714 ft | 261 kts | 42° |
| 2026-05-04 18:41 | 47.42335 | 19.47956 | 6450 ft | 262 kts | 44° |
| 2026-05-04 18:41 | 47.43748 | 19.49636 | 7127 ft | 262 kts | 25° |
| 2026-05-04 18:42 | 47.45543 | 19.50109 | 7826 ft | 266 kts | 358° |
| 2026-05-04 18:42 | 47.47460 | 19.49933 | 8560 ft | 297 kts | 356° |
| 2026-05-04 18:42 | 47.49578 | 19.49947 | 9329 ft | 312 kts | 3° |
| 2026-05-04 18:42 | 47.51786 | 19.50333 | 10081 ft | 323 kts | 7° |
| 2026-05-04 18:43 | 47.54080 | 19.50765 | 10798 ft | 334 kts | 5° |
| 2026-05-04 18:43 | 47.56415 | 19.51042 | 11539 ft | 323 kts | 3° |
| 2026-05-04 18:43 | 47.58726 | 19.51280 | 12295 ft | 349 kts | 4° |
| 2026-05-04 18:43 | 47.61223 | 19.51608 | 13086 ft | 361 kts | 5° |
| 2026-05-04 18:44 | 47.63768 | 19.51979 | 13887 ft | 376 kts | 5° |
| 2026-05-04 18:44 | 47.65485 | 19.52211 | 14363 ft | 372 kts | 4° |
| 2026-05-04 18:44 | 47.68981 | 19.52648 | 15348 ft | 379 kts | 4° |
| 2026-05-04 18:44 | 47.71606 | 19.52993 | 16100 ft | 381 kts | 5° |
| 2026-05-04 18:45 | 47.74265 | 19.53353 | 16870 ft | 386 kts | 4° |
| 2026-05-04 18:45 | 47.76946 | 19.53708 | 17665 ft | 387 kts | 4° |
| 2026-05-04 18:45 | 47.79644 | 19.54061 | 18456 ft | 392 kts | 4° |
| 2026-05-04 18:45 | 47.82379 | 19.54423 | 19163 ft | 395 kts | 4° |
| 2026-05-04 18:46 | 47.85124 | 19.54786 | 19886 ft | 398 kts | 4° |
| 2026-05-04 18:46 | 47.87901 | 19.55152 | 20631 ft | 404 kts | 4° |
| 2026-05-04 18:46 | 47.90682 | 19.55524 | 21390 ft | 408 kts | 4° |
| 2026-05-04 18:46 | 47.93516 | 19.55902 | 22167 ft | 410 kts | 4° |
| 2026-05-04 18:47 | 47.96382 | 19.56281 | 22978 ft | 418 kts | 4° |
| 2026-05-04 18:47 | 47.99296 | 19.56666 | 23775 ft | 421 kts | 4° |
| 2026-05-04 18:47 | 48.02200 | 19.56337 | 24450 ft | 420 kts | 344° |
| 2026-05-04 18:47 | 48.04888 | 19.54588 | 25161 ft | 426 kts | 330° |
| 2026-05-04 18:48 | 48.07404 | 19.52196 | 25897 ft | 431 kts | 325° |
| 2026-05-04 18:48 | 48.09890 | 19.49650 | 26649 ft | 435 kts | 326° |
| 2026-05-04 18:48 | 48.12461 | 19.47232 | 27422 ft | 438 kts | 330° |
| 2026-05-04 18:48 | 48.15182 | 19.45171 | 28220 ft | 439 kts | 334° |
| 2026-05-04 18:49 | 48.17951 | 19.43257 | 29036 ft | 438 kts | 334° |
| 2026-05-04 18:49 | 48.20659 | 19.41169 | 29874 ft | 437 kts | 330° |
| 2026-05-04 18:49 | 48.23341 | 19.38898 | 30044 ft | 451 kts | 330° |
| 2026-05-04 18:49 | 48.26148 | 19.36610 | 30050 ft | 464 kts | 332° |
| 2026-05-04 18:50 | 48.29009 | 19.34430 | 30045 ft | 458 kts | 333° |
| 2026-05-04 18:50 | 48.34666 | 19.29947 | 30058 ft | 464 kts | 331° |
| 2026-05-04 18:51 | 48.40418 | 19.25354 | 30060 ft | 468 kts | 332° |
| 2026-05-04 18:51 | 48.46170 | 19.20783 | 30057 ft | 469 kts | 331° |
| 2026-05-04 18:52 | 48.51935 | 19.16156 | 30066 ft | 466 kts | 332° |
| 2026-05-04 18:52 | 48.57693 | 19.11550 | 30063 ft | 470 kts | 331° |
| 2026-05-04 18:53 | 48.63428 | 19.06931 | 30067 ft | 466 kts | 331° |
| 2026-05-04 18:53 | 48.69147 | 19.02326 | 30053 ft | 466 kts | 331° |
| 2026-05-04 18:54 | 48.74934 | 18.97645 | 30057 ft | 469 kts | 331° |
| 2026-05-04 18:54 | 48.80673 | 18.92998 | 30058 ft | 469 kts | 331° |
| 2026-05-04 18:55 | 48.86396 | 18.88346 | 30061 ft | 465 kts | 331° |
| 2026-05-04 18:55 | 48.94973 | 18.81354 | 30045 ft | 465 kts | 330° |
| 2026-05-04 18:56 | 49.00698 | 18.76673 | 30035 ft | 465 kts | 330° |
| 2026-05-04 18:56 | 49.06402 | 18.71996 | 30028 ft | 467 kts | 330° |
| 2026-05-04 18:57 | 49.12124 | 18.67293 | 30033 ft | 467 kts | 330° |
| 2026-05-04 18:57 | 49.17837 | 18.62584 | 30034 ft | 466 kts | 330° |
| 2026-05-04 18:58 | 49.23542 | 18.57867 | 30030 ft | 465 kts | 330° |
| 2026-05-04 18:58 | 49.29233 | 18.53152 | 30030 ft | 465 kts | 330° |
| 2026-05-04 18:59 | 49.34882 | 18.48456 | 30033 ft | 464 kts | 330° |
| 2026-05-04 18:59 | 49.40589 | 18.43837 | 30020 ft | 466 kts | 334° |
| 2026-05-04 19:00 | 49.46520 | 18.39739 | 30015 ft | 466 kts | 334° |
| 2026-05-04 19:00 | 49.52410 | 18.35561 | 30002 ft | 467 kts | 334° |
| 2026-05-04 19:01 | 49.58317 | 18.31425 | 30004 ft | 464 kts | 334° |
| 2026-05-04 19:01 | 49.64214 | 18.27243 | 30007 ft | 466 kts | 334° |
| 2026-05-04 19:02 | 49.70098 | 18.23089 | 30002 ft | 466 kts | 334° |
| 2026-05-04 19:02 | 49.75967 | 18.18915 | 30000 ft | 465 kts | 334° |
| 2026-05-04 19:03 | 49.81854 | 18.14727 | 29999 ft | 467 kts | 334° |
| 2026-05-04 19:03 | 49.87737 | 18.10527 | 29995 ft | 463 kts | 334° |
| 2026-05-04 19:04 | 49.93618 | 18.06311 | 29989 ft | 467 kts | 333° |
| 2026-05-04 19:04 | 49.98508 | 18.02807 | 29980 ft | 463 kts | 334° |
| 2026-05-04 19:05 | 50.04422 | 17.98727 | 29968 ft | 467 kts | 338° |
| 2026-05-04 19:05 | 50.10501 | 17.95275 | 29968 ft | 466 kts | 338° |
| 2026-05-04 19:06 | 50.16588 | 17.91715 | 29970 ft | 465 kts | 338° |
| 2026-05-04 19:06 | 50.22685 | 17.88207 | 29965 ft | 468 kts | 338° |
| 2026-05-04 19:07 | 50.28761 | 17.84659 | 29966 ft | 466 kts | 338° |
| 2026-05-04 19:07 | 50.34855 | 17.81116 | 29961 ft | 468 kts | 337° |
| 2026-05-04 19:08 | 50.40936 | 17.77560 | 29960 ft | 464 kts | 337° |
| 2026-05-04 19:08 | 50.47006 | 17.74006 | 29959 ft | 467 kts | 337° |
| 2026-05-04 19:09 | 50.53043 | 17.70471 | 29952 ft | 464 kts | 337° |
| 2026-05-04 19:09 | 50.59137 | 17.66940 | 29950 ft | 469 kts | 337° |
| 2026-05-04 19:10 | 50.65223 | 17.63380 | 29948 ft | 466 kts | 337° |
| 2026-05-04 19:10 | 50.71338 | 17.59804 | 29950 ft | 468 kts | 337° |
| 2026-05-04 19:11 | 50.77432 | 17.56225 | 29946 ft | 470 kts | 337° |
| 2026-05-04 19:11 | 50.83501 | 17.52655 | 29948 ft | 467 kts | 337° |
| 2026-05-04 19:12 | 50.92661 | 17.47246 | 29950 ft | 467 kts | 336° |
| 2026-05-04 19:13 | 50.98770 | 17.43622 | 29947 ft | 467 kts | 336° |
| 2026-05-04 19:13 | 51.04862 | 17.40003 | 29939 ft | 469 kts | 336° |
| 2026-05-04 19:14 | 51.10975 | 17.36358 | 29937 ft | 467 kts | 336° |
| 2026-05-04 19:14 | 51.17064 | 17.32719 | 29944 ft | 470 kts | 336° |
| 2026-05-04 19:15 | 51.23158 | 17.29067 | 29941 ft | 467 kts | 336° |
| 2026-05-04 19:15 | 51.29265 | 17.25395 | 29954 ft | 468 kts | 336° |
| 2026-05-04 19:16 | 51.35350 | 17.21728 | 29942 ft | 467 kts | 336° |
| 2026-05-04 19:16 | 51.41453 | 17.18036 | 29944 ft | 468 kts | 336° |
| 2026-05-04 19:17 | 51.47490 | 17.14379 | 29945 ft | 467 kts | 336° |
| 2026-05-04 19:17 | 51.53591 | 17.10666 | 29945 ft | 467 kts | 336° |
| 2026-05-04 19:18 | 51.59684 | 17.06947 | 29948 ft | 469 kts | 335° |
| 2026-05-04 19:18 | 51.65804 | 17.03213 | 29946 ft | 470 kts | 335° |
| 2026-05-04 19:19 | 51.71895 | 16.99472 | 29947 ft | 469 kts | 335° |
| 2026-05-04 19:19 | 51.78013 | 16.95711 | 29946 ft | 471 kts | 335° |
| 2026-05-04 19:20 | 51.84113 | 16.91950 | 29953 ft | 468 kts | 335° |
| 2026-05-04 19:20 | 51.90188 | 16.88188 | 29947 ft | 471 kts | 335° |
| 2026-05-04 19:21 | 51.96272 | 16.84417 | 29946 ft | 468 kts | 335° |
| 2026-05-04 19:21 | 52.02382 | 16.80611 | 29952 ft | 469 kts | 335° |
| 2026-05-04 19:22 | 52.08464 | 16.76819 | 29948 ft | 470 kts | 335° |
| 2026-05-04 19:22 | 52.14573 | 16.72995 | 29953 ft | 468 kts | 335° |
| 2026-05-04 19:23 | 52.20636 | 16.69186 | 29953 ft | 471 kts | 334° |
| 2026-05-04 19:23 | 52.26750 | 16.65341 | 29947 ft | 469 kts | 334° |
| 2026-05-04 19:24 | 52.32832 | 16.61496 | 29949 ft | 469 kts | 334° |
| 2026-05-04 19:24 | 52.38927 | 16.57639 | 29951 ft | 468 kts | 334° |
| 2026-05-04 19:25 | 52.44992 | 16.53783 | 29952 ft | 468 kts | 334° |
| 2026-05-04 19:25 | 52.51061 | 16.49922 | 29954 ft | 465 kts | 334° |
| 2026-05-04 19:26 | 52.57118 | 16.46044 | 29955 ft | 467 kts | 334° |
| 2026-05-04 19:26 | 52.63152 | 16.42182 | 29959 ft | 467 kts | 334° |
| 2026-05-04 19:27 | 52.69152 | 16.38325 | 29959 ft | 464 kts | 334° |
| 2026-05-04 19:27 | 52.75190 | 16.34430 | 29957 ft | 466 kts | 334° |
| 2026-05-04 19:28 | 52.81207 | 16.30541 | 29959 ft | 466 kts | 334° |
| 2026-05-04 19:28 | 52.87233 | 16.26628 | 29961 ft | 462 kts | 334° |
| 2026-05-04 19:29 | 52.93266 | 16.22709 | 29964 ft | 465 kts | 333° |
| 2026-05-04 19:29 | 52.99268 | 16.18790 | 29964 ft | 466 kts | 333° |
| 2026-05-04 19:30 | 53.05285 | 16.14858 | 29971 ft | 463 kts | 333° |
| 2026-05-04 19:30 | 53.11310 | 16.10896 | 29975 ft | 465 kts | 333° |
| 2026-05-04 19:31 | 53.17281 | 16.06970 | 29972 ft | 465 kts | 333° |
| 2026-05-04 19:31 | 53.23293 | 16.02999 | 29974 ft | 463 kts | 333° |
| 2026-05-04 19:32 | 53.29302 | 15.99016 | 29975 ft | 464 kts | 333° |
| 2026-05-04 19:32 | 53.35289 | 15.95042 | 29978 ft | 464 kts | 333° |
| 2026-05-04 19:33 | 53.41296 | 15.91039 | 29983 ft | 462 kts | 332° |
| 2026-05-04 19:33 | 53.47279 | 15.87037 | 29981 ft | 464 kts | 332° |
| 2026-05-04 19:34 | 53.53270 | 15.83024 | 29983 ft | 461 kts | 332° |
| 2026-05-04 19:34 | 53.59248 | 15.78996 | 29980 ft | 464 kts | 332° |
| 2026-05-04 19:35 | 53.65203 | 15.74990 | 29994 ft | 461 kts | 332° |
| 2026-05-04 19:35 | 53.71158 | 15.70954 | 29989 ft | 458 kts | 332° |
| 2026-05-04 19:36 | 53.77095 | 15.66923 | 29991 ft | 460 kts | 331° |
| 2026-05-04 19:36 | 53.83004 | 15.62907 | 29993 ft | 458 kts | 331° |
| 2026-05-04 19:37 | 53.88924 | 15.58858 | 29989 ft | 457 kts | 331° |
| 2026-05-04 19:37 | 53.94833 | 15.54813 | 29988 ft | 459 kts | 331° |
| 2026-05-04 19:38 | 54.00722 | 15.50771 | 29989 ft | 455 kts | 331° |
| 2026-05-04 19:38 | 54.06588 | 15.46719 | 29986 ft | 456 kts | 330° |
| 2026-05-04 19:39 | 54.12473 | 15.42659 | 29986 ft | 457 kts | 330° |
| 2026-05-04 19:39 | 54.18358 | 15.38579 | 29986 ft | 454 kts | 330° |
| 2026-05-04 19:40 | 54.24236 | 15.34483 | 29983 ft | 457 kts | 330° |
| 2026-05-04 19:40 | 54.30099 | 15.30398 | 29988 ft | 455 kts | 330° |
| 2026-05-04 19:41 | 54.35980 | 15.26273 | 29984 ft | 455 kts | 330° |
| 2026-05-04 19:41 | 54.41802 | 15.22198 | 29505 ft | 453 kts | 330° |
| 2026-05-04 19:41 | 54.44699 | 15.20162 | 29081 ft | 448 kts | 330° |
| 2026-05-04 19:42 | 54.47586 | 15.18121 | 28674 ft | 448 kts | 330° |
| 2026-05-04 19:42 | 54.50454 | 15.16099 | 28246 ft | 443 kts | 330° |
| 2026-05-04 19:42 | 54.53287 | 15.14104 | 27766 ft | 431 kts | 330° |
| 2026-05-04 19:42 | 54.55970 | 15.12226 | 27292 ft | 403 kts | 330° |
| 2026-05-04 19:43 | 54.58355 | 15.10009 | 26800 ft | 379 kts | 314° |
| 2026-05-04 19:43 | 54.60210 | 15.06754 | 26324 ft | 382 kts | 304° |
| 2026-05-04 19:43 | 54.61833 | 15.03179 | 25897 ft | 377 kts | 302° |
| 2026-05-04 19:43 | 54.63443 | 14.99588 | 25454 ft | 380 kts | 303° |
| 2026-05-04 19:44 | 54.65212 | 14.96180 | 25019 ft | 382 kts | 309° |
| 2026-05-04 19:44 | 54.67127 | 14.93017 | 24586 ft | 380 kts | 310° |
| 2026-05-04 19:44 | 54.68998 | 14.89833 | 24163 ft | 375 kts | 308° |
| 2026-05-04 19:44 | 54.70759 | 14.86524 | 23747 ft | 374 kts | 306° |
| 2026-05-04 19:45 | 54.72523 | 14.83208 | 23293 ft | 375 kts | 308° |
| 2026-05-04 19:45 | 54.74309 | 14.80022 | 22809 ft | 372 kts | 309° |
| 2026-05-04 19:45 | 54.76107 | 14.76843 | 22327 ft | 367 kts | 308° |
| 2026-05-04 19:45 | 54.77869 | 14.73625 | 21849 ft | 368 kts | 308° |
| 2026-05-04 19:46 | 54.79621 | 14.70393 | 21380 ft | 367 kts | 308° |
| 2026-05-04 19:46 | 54.81374 | 14.67211 | 20919 ft | 363 kts | 309° |
| 2026-05-04 19:46 | 54.83122 | 14.64046 | 20464 ft | 363 kts | 309° |
| 2026-05-04 19:46 | 54.84854 | 14.60856 | 20016 ft | 363 kts | 308° |
| 2026-05-04 19:47 | 54.86445 | 14.57504 | 19570 ft | 357 kts | 303° |
| 2026-05-04 19:47 | 54.87930 | 14.54059 | 19186 ft | 355 kts | 303° |
| 2026-05-04 19:47 | 54.89482 | 14.50702 | 18824 ft | 358 kts | 306° |
| 2026-05-04 19:47 | 54.91098 | 14.47404 | 18470 ft | 357 kts | 307° |
| 2026-05-04 19:48 | 54.92148 | 14.45217 | 18232 ft | 355 kts | 306° |
| 2026-05-04 19:48 | 54.93691 | 14.41881 | 17830 ft | 353 kts | 305° |
| 2026-05-04 19:48 | 54.95225 | 14.38549 | 17428 ft | 352 kts | 306° |
| 2026-05-04 19:48 | 54.96770 | 14.35260 | 17035 ft | 350 kts | 306° |
| 2026-05-04 19:49 | 54.98311 | 14.31985 | 16644 ft | 348 kts | 306° |
| 2026-05-04 19:49 | 54.99831 | 14.28718 | 16269 ft | 346 kts | 305° |
| 2026-05-04 19:49 | 55.01339 | 14.25466 | 15915 ft | 344 kts | 306° |
| 2026-05-04 19:49 | 55.02841 | 14.22241 | 15558 ft | 342 kts | 306° |
| 2026-05-04 19:50 | 55.04338 | 14.19022 | 15111 ft | 341 kts | 306° |
| 2026-05-04 19:50 | 55.05808 | 14.15856 | 14653 ft | 330 kts | 305° |
| 2026-05-04 19:50 | 55.07232 | 14.12782 | 14177 ft | 322 kts | 305° |
| 2026-05-04 19:50 | 55.08626 | 14.09762 | 13686 ft | 318 kts | 305° |
| 2026-05-04 19:51 | 55.10013 | 14.06757 | 13151 ft | 317 kts | 305° |
| 2026-05-04 19:51 | 55.11396 | 14.03761 | 12626 ft | 316 kts | 305° |
| 2026-05-04 19:51 | 55.12776 | 14.00767 | 12109 ft | 315 kts | 305° |
| 2026-05-04 19:51 | 55.14123 | 13.97840 | 11609 ft | 312 kts | 305° |
| 2026-05-04 19:52 | 55.15474 | 13.94889 | 11103 ft | 310 kts | 305° |
| 2026-05-04 19:52 | 55.16823 | 13.91953 | 10618 ft | 308 kts | 306° |
| 2026-05-04 19:52 | 55.18165 | 13.89036 | 10126 ft | 307 kts | 306° |
| 2026-05-04 19:52 | 55.19500 | 13.86127 | 9632 ft | 303 kts | 306° |
| 2026-05-04 19:53 | 55.20774 | 13.83349 | 9101 ft | 282 kts | 306° |
| 2026-05-04 19:53 | 55.21960 | 13.80759 | 8573 ft | 265 kts | 306° |
| 2026-05-04 19:53 | 55.23089 | 13.78280 | 8052 ft | 259 kts | 306° |
| 2026-05-04 19:53 | 55.24216 | 13.75800 | 7536 ft | 260 kts | 306° |
| 2026-05-04 19:54 | 55.25342 | 13.73328 | 7047 ft | 259 kts | 306° |
| 2026-05-04 19:54 | 55.26455 | 13.70887 | 6725 ft | 253 kts | 306° |
| 2026-05-04 19:54 | 55.27556 | 13.68466 | 6478 ft | 255 kts | 306° |
| 2026-05-04 19:54 | 55.28665 | 13.66024 | 6219 ft | 256 kts | 306° |
| 2026-05-04 19:55 | 55.29776 | 13.63575 | 5962 ft | 256 kts | 306° |
| 2026-05-04 19:55 | 55.30884 | 13.61133 | 5701 ft | 255 kts | 306° |
| 2026-05-04 19:55 | 55.31989 | 13.58695 | 5455 ft | 254 kts | 306° |
| 2026-05-04 19:55 | 55.33089 | 13.56263 | 5195 ft | 254 kts | 306° |
| 2026-05-04 19:56 | 55.34170 | 13.53871 | 4986 ft | 252 kts | 306° |
| 2026-05-04 19:56 | 55.35248 | 13.51489 | 4984 ft | 249 kts | 306° |
| 2026-05-04 19:56 | 55.36335 | 13.49074 | 4978 ft | 253 kts | 306° |
| 2026-05-04 19:56 | 55.37427 | 13.46653 | 4981 ft | 253 kts | 306° |
| 2026-05-04 19:57 | 55.38521 | 13.44223 | 4981 ft | 254 kts | 306° |
| 2026-05-04 19:57 | 55.39615 | 13.41790 | 4980 ft | 253 kts | 306° |
| 2026-05-04 19:57 | 55.40705 | 13.39366 | 4980 ft | 252 kts | 306° |
| 2026-05-04 19:57 | 55.41788 | 13.36946 | 4980 ft | 251 kts | 306° |
| 2026-05-04 19:58 | 55.42869 | 13.34531 | 4977 ft | 251 kts | 306° |
| 2026-05-04 19:58 | 55.43955 | 13.32116 | 4978 ft | 252 kts | 306° |
| 2026-05-04 19:58 | 55.44947 | 13.29563 | 4978 ft | 252 kts | 295° |
| 2026-05-04 19:58 | 55.45570 | 13.26692 | 4968 ft | 251 kts | 288° |
| 2026-05-04 19:59 | 55.46496 | 13.24087 | 4961 ft | 253 kts | 310° |
| 2026-05-04 19:59 | 55.47740 | 13.21914 | 4968 ft | 247 kts | 312° |
| 2026-05-04 19:59 | 55.48861 | 13.19761 | 4959 ft | 233 kts | 307° |
| 2026-05-04 19:59 | 55.49845 | 13.17517 | 4965 ft | 231 kts | 304° |
| 2026-05-04 20:00 | 55.50818 | 13.15253 | 4968 ft | 232 kts | 305° |
| 2026-05-04 20:00 | 55.51826 | 13.12998 | 4921 ft | 237 kts | 306° |
| 2026-05-04 20:00 | 55.53063 | 13.11018 | 4609 ft | 247 kts | 329° |
| 2026-05-04 20:00 | 55.54704 | 13.10166 | 4084 ft | 246 kts | 347° |
| 2026-05-04 20:01 | 55.56351 | 13.09759 | 3975 ft | 234 kts | 348° |
| 2026-05-04 20:01 | 55.57979 | 13.09228 | 3978 ft | 242 kts | 344° |
| 2026-05-04 20:01 | 55.59616 | 13.08517 | 3978 ft | 242 kts | 342° |
| 2026-05-04 20:01 | 55.61239 | 13.07793 | 3978 ft | 236 kts | 343° |
| 2026-05-04 20:02 | 55.62793 | 13.07138 | 3977 ft | 226 kts | 343° |
| 2026-05-04 20:02 | 55.64312 | 13.06464 | 3973 ft | 224 kts | 339° |
| 2026-05-04 20:02 | 55.65864 | 13.06043 | 3967 ft | 229 kts | 356° |
| 2026-05-04 20:02 | 55.67440 | 13.06145 | 3967 ft | 231 kts | 359° |
| 2026-05-04 20:03 | 55.69049 | 13.06328 | 3964 ft | 231 kts | 0° |
| 2026-05-04 20:03 | 55.70653 | 13.06521 | 3984 ft | 231 kts | 0° |
| 2026-05-04 20:03 | 55.72251 | 13.06714 | 3978 ft | 230 kts | 0° |
| 2026-05-04 20:03 | 55.73845 | 13.06897 | 3980 ft | 229 kts | 358° |
| 2026-05-04 20:04 | 55.75383 | 13.06661 | 3974 ft | 212 kts | 347° |
| 2026-05-04 20:04 | 55.76803 | 13.06202 | 3978 ft | 205 kts | 345° |
| 2026-05-04 20:04 | 55.78146 | 13.05438 | 3973 ft | 200 kts | 327° |
| 2026-05-04 20:04 | 55.79310 | 13.04075 | 3973 ft | 200 kts | 321° |
| 2026-05-04 20:05 | 55.80426 | 13.02589 | 3953 ft | 199 kts | 313° |
| 2026-05-04 20:05 | 55.81065 | 13.00470 | 3974 ft | 195 kts | 284° |
| 2026-05-04 20:05 | 55.81352 | 12.98112 | 3980 ft | 196 kts | 281° |
| 2026-05-04 20:05 | 55.81568 | 12.95803 | 3964 ft | 182 kts | 271° |
| 2026-05-04 20:06 | 55.81156 | 12.93824 | 3963 ft | 178 kts | 230° |
| 2026-05-04 20:06 | 55.80090 | 12.92624 | 3962 ft | 183 kts | 216° |
| 2026-05-04 20:06 | 55.79099 | 12.91244 | 3981 ft | 180 kts | 224° |
| 2026-05-04 20:06 | 55.78145 | 12.89786 | 3983 ft | 180 kts | 225° |
| 2026-05-04 20:07 | 55.77218 | 12.88319 | 3982 ft | 177 kts | 225° |
| 2026-05-04 20:07 | 55.76282 | 12.86863 | 3963 ft | 182 kts | 225° |
| 2026-05-04 20:07 | 55.75310 | 12.85349 | 3748 ft | 186 kts | 225° |
| 2026-05-04 20:07 | 55.74355 | 12.83866 | 3500 ft | 181 kts | 225° |
| 2026-05-04 20:08 | 55.73408 | 12.82379 | 3261 ft | 182 kts | 225° |
| 2026-05-04 20:08 | 55.72452 | 12.80890 | 3009 ft | 183 kts | 225° |
| 2026-05-04 20:08 | 55.71497 | 12.79407 | 2770 ft | 182 kts | 225° |
| 2026-05-04 20:08 | 55.70548 | 12.77936 | 2515 ft | 181 kts | 225° |
| 2026-05-04 20:09 | 55.69617 | 12.76483 | 2271 ft | 181 kts | 225° |
| 2026-05-04 20:09 | 55.68668 | 12.75011 | 2025 ft | 182 kts | 225° |
| 2026-05-04 20:09 | 55.67720 | 12.73527 | 1775 ft | 182 kts | 225° |
| 2026-05-04 20:09 | 55.66791 | 12.72081 | 1544 ft | 172 kts | 225° |
| 2026-05-04 20:10 | 55.65916 | 12.70729 | 1308 ft | 164 kts | 225° |
| 2026-05-04 20:10 | 55.65046 | 12.69379 | 1073 ft | 168 kts | 225° |
| 2026-05-04 20:10 | 55.64197 | 12.68065 | 855 ft | 152 kts | 224° |
| 2026-05-04 20:10 | 55.63371 | 12.66778 | 630 ft | 159 kts | 224° |
| 2026-05-04 20:11 | 55.62549 | 12.65501 | 410 ft | 156 kts | 223° |
| 2026-05-04 20:11 | 55.61754 | 12.64274 | 183 ft | 146 kts | 220° |
| 2026-05-04 20:11 | 55.61055 | 12.63175 | 21 ft | 118 kts | 230° |
| 2026-05-04 20:11 | 55.60618 | 12.62630 | 19 ft | 40 kts | 257° |